Time;durP1;ratioP1;P1;durP2;ratioP2;P2;SDS_P1;SDS_P2;PMS_P1;PMS_P2;Temp;Humidity;BMP_temperature;BMP_pressure;BME280_temperature;BME280_humidity;BME280_pressure;Samples;Min_cycle;Max_cycle;Signal;HPM_P1;HPM_P2
2023/01/23 00:09:45;;;;;;;38.85;17.70;;;;;;;0.27;100.00;101712.34;20805231;28;20065;-67
2023/01/23 00:19:46;;;;;;;34.50;16.75;;;;;;;0.27;100.00;101710.63;20805752;28;20053;-67
2023/01/23 00:29:47;;;;;;;38.53;17.65;;;;;;;0.18;100.00;101713.66;20806966;28;20065;-68
2023/01/23 00:39:49;;;;;;;34.63;16.98;;;;;;;0.13;100.00;101702.25;20804867;28;20140;-68
2023/01/23 00:49:52;;;;;;;41.40;18.38;;;;;;;0.24;100.00;101713.09;20805165;28;20061;-68
2023/01/23 00:59:54;;;;;;;41.00;17.77;;;;;;;0.28;100.00;101709.81;20805888;28;20509;-68
2023/01/23 01:09:55;;;;;;;38.15;17.25;;;;;;;0.25;100.00;101710.56;20803357;28;20085;-68
2023/01/23 01:19:56;;;;;;;40.47;17.67;;;;;;;0.33;100.00;101712.63;20805376;28;20077;-68
2023/01/23 01:29:57;;;;;;;38.60;17.23;;;;;;;0.34;100.00;101712.69;20808142;28;20073;-68
2023/01/23 01:39:59;;;;;;;35.50;15.55;;;;;;;0.32;100.00;101721.16;20817094;28;20057;-68
2023/01/23 01:50:00;;;;;;;40.53;18.52;;;;;;;0.36;100.00;101717.91;20816271;28;20045;-67
2023/01/23 02:00:01;;;;;;;39.83;17.13;;;;;;;0.25;100.00;101735.44;20817169;28;20053;-67
2023/01/23 02:10:02;;;;;;;41.30;17.10;;;;;;;0.33;100.00;101746.09;20815040;28;20120;-67
2023/01/23 02:20:03;;;;;;;43.17;18.48;;;;;;;0.29;100.00;101742.53;20815176;28;20081;-68
2023/01/23 02:30:06;;;;;;;41.17;16.98;;;;;;;0.21;100.00;101743.84;20814048;28;20390;-68
2023/01/23 02:40:07;;;;;;;37.40;17.50;;;;;;;0.20;100.00;101757.53;20811830;28;20053;-67
2023/01/23 02:50:09;;;;;;;40.67;16.90;;;;;;;0.12;100.00;101754.56;20812580;28;20058;-67
2023/01/23 03:00:16;;;;;;;43.88;17.55;;;;;;;0.13;100.00;101751.19;20810904;28;20123;-67
2023/01/23 03:10:17;;;;;;;41.83;17.52;;;;;;;0.12;100.00;101744.28;20810704;28;20046;-67
2023/01/23 03:20:22;;;;;;;40.13;18.10;;;;;;;0.13;100.00;101751.19;20809850;28;20053;-67
2023/01/23 03:30:24;;;;;;;43.10;18.50;;;;;;;0.13;100.00;101748.59;20808851;28;20049;-67
2023/01/23 03:50:45;;;;;;;37.90;16.10;;;;;;;0.13;100.00;101729.72;20805784;28;20081;-67
2023/01/23 04:00:46;;;;;;;35.88;15.40;;;;;;;0.17;100.00;101735.06;20806787;28;20521;-68
2023/01/23 04:10:48;;;;;;;34.30;16.23;;;;;;;0.14;100.00;101732.34;20806948;28;20065;-67
2023/01/23 04:20:49;;;;;;;34.50;14.55;;;;;;;0.20;100.00;101747.22;20806520;28;20108;-68
2023/01/23 04:30:50;;;;;;;35.85;15.15;;;;;;;0.20;100.00;101752.38;20807158;28;20053;-68
2023/01/23 04:40:52;;;;;;;33.67;14.25;;;;;;;0.28;100.00;101768.19;20806172;28;20057;-67
2023/01/23 04:50:53;;;;;;;35.80;15.48;;;;;;;0.33;100.00;101785.63;20805445;28;20490;-68
2023/01/23 05:00:54;;;;;;;32.53;15.27;;;;;;;0.30;100.00;101792.34;20805047;28;20571;-68
2023/01/23 05:10:55;;;;;;;28.65;13.52;;;;;;;0.37;100.00;101791.81;20819710;28;20103;-67
2023/01/23 05:20:57;;;;;;;29.92;13.75;;;;;;;0.35;100.00;101788.28;20819783;28;20709;-67
2023/01/23 05:30:58;;;;;;;32.20;14.27;;;;;;;0.35;100.00;101788.28;20818877;28;20068;-67
2023/01/23 05:40:59;;;;;;;29.08;13.68;;;;;;;0.46;100.00;101807.72;20817696;28;20489;-67
2023/01/23 05:51:00;;;;;;;29.92;13.52;;;;;;;0.46;100.00;101805.13;20816858;28;20636;-67
2023/01/23 06:01:02;;;;;;;40.50;20.70;;;;;;;0.43;100.00;101802.41;20815399;28;20053;-68
2023/01/23 06:11:03;;;;;;;43.80;20.40;;;;;;;0.51;100.00;101804.53;20815424;28;20049;-67
2023/01/23 06:21:05;;;;;;;38.45;18.13;;;;;;;0.53;100.00;101804.63;20815441;28;20406;-67
2023/01/23 06:31:08;;;;;;;42.75;17.42;;;;;;;0.46;100.00;101808.59;20810509;28;20080;-67
2023/01/23 06:41:09;;;;;;;38.43;17.47;;;;;;;0.21;100.00;101816.84;20813426;28;20084;-67
2023/01/23 06:51:10;;;;;;;45.30;20.27;;;;;;;0.01;100.00;101812.41;20812930;28;20127;-68
2023/01/23 07:01:12;;;;;;;49.17;22.02;;;;;;;-0.02;100.00;101833.72;20801872;28;20148;-68
2023/01/23 07:11:13;;;;;;;32.55;15.52;;;;;;;0.04;100.00;101850.28;20810468;28;20167;-67
2023/01/23 07:21:14;;;;;;;39.58;18.35;;;;;;;0.17;100.00;101881.88;20808465;28;20500;-68
2023/01/23 07:31:15;;;;;;;25.10;11.65;;;;;;;0.21;100.00;101885.50;20808155;28;20083;-68
2023/01/23 07:41:17;;;;;;;28.90;13.32;;;;;;;0.22;100.00;101890.72;20807836;28;20065;-69
2023/01/23 07:51:18;;;;;;;28.80;12.27;;;;;;;0.19;100.00;101895.75;20807473;28;20092;-69
2023/01/23 08:01:19;;;;;;;26.98;13.02;;;;;;;0.26;100.00;101894.34;20803973;28;20049;-68
2023/01/23 08:11:22;;;;;;;30.35;12.85;;;;;;;0.42;100.00;101888.25;20794953;28;20061;-68
2023/01/23 08:21:24;;;;;;;25.35;11.82;;;;;;;0.38;100.00;101897.50;20786621;28;20112;-68
2023/01/23 08:31:25;;;;;;;28.42;12.45;;;;;;;0.41;100.00;101896.78;20784506;28;20434;-67
2023/01/23 08:41:26;;;;;;;26.92;12.88;;;;;;;0.58;100.00;101885.63;20799165;28;20053;-66
2023/01/23 08:51:28;;;;;;;27.00;12.07;;;;;;;0.74;100.00;101890.69;20803362;28;20081;-66
2023/01/23 09:01:29;;;;;;;28.45;12.60;;;;;;;0.99;100.00;101894.44;20821248;28;20425;-66
2023/01/23 09:11:30;;;;;;;25.70;12.23;;;;;;;1.23;100.00;101885.25;20824099;28;20058;-68
2023/01/23 09:21:31;;;;;;;26.80;11.80;;;;;;;1.35;100.00;101895.25;20819557;28;20061;-66
2023/01/23 09:31:33;;;;;;;23.00;10.80;;;;;;;1.70;100.00;101896.84;20817794;28;20636;-66
2023/01/23 09:41:34;;;;;;;27.35;12.27;;;;;;;1.65;100.00;101915.53;20817446;28;20057;-67
2023/01/23 09:51:35;;;;;;;29.55;12.82;;;;;;;1.80;100.00;101921.38;20820579;28;20464;-66
2023/01/23 10:01:36;;;;;;;27.00;12.07;;;;;;;1.85;100.00;101909.53;20816211;28;20060;-68
2023/01/23 10:11:40;;;;;;;26.13;12.60;;;;;;;1.89;100.00;101892.47;20816334;28;20478;-69
2023/01/23 10:21:42;;;;;;;25.15;11.30;;;;;;;2.06;100.00;101901.84;20818481;28;20084;-67
2023/01/23 10:31:43;;;;;;;18.17;8.32;;;;;;;2.19;100.00;101900.66;20814956;28;20488;-66
2023/01/23 10:41:44;;;;;;;17.60;8.27;;;;;;;2.03;100.00;101912.03;20814948;28;20057;-66
2023/01/23 10:51:49;;;;;;;18.10;9.43;;;;;;;1.88;100.00;101903.63;20810142;28;20061;-66
2023/01/23 11:01:50;;;;;;;19.08;9.75;;;;;;;1.91;100.00;101911.50;20809019;28;20122;-66
2023/01/23 11:11:59;;;;;;;19.20;9.70;;;;;;;1.95;100.00;101910.81;20807088;28;20053;-66
2023/01/23 11:22:00;;;;;;;21.10;9.75;;;;;;;1.97;100.00;101909.22;20810527;28;20057;-67
2023/01/23 11:32:08;;;;;;;20.27;9.45;;;;;;;1.91;100.00;101914.09;20974677;28;20467;-68
2023/01/23 11:42:10;;;;;;;19.17;9.13;;;;;;;2.02;100.00;101898.25;21041957;28;20121;-68
2023/01/23 11:52:11;;;;;;;19.23;9.48;;;;;;;2.14;100.00;101900.47;21042934;28;20484;-68
2023/01/23 12:02:12;;;;;;;19.33;9.07;;;;;;;2.60;100.00;101866.19;21043118;28;20081;-68
2023/01/23 12:12:13;;;;;;;15.68;8.07;;;;;;;2.75;100.00;101837.47;21042062;28;20048;-67
2023/01/23 12:22:15;;;;;;;17.05;8.32;;;;;;;2.78;100.00;101843.66;21040433;28;20040;-67
2023/01/23 12:32:16;;;;;;;17.35;8.35;;;;;;;2.91;100.00;101829.47;21039178;28;20416;-68
2023/01/23 12:42:17;;;;;;;15.85;8.05;;;;;;;2.93;100.00;101832.13;20989737;28;20075;-66
2023/01/23 12:52:19;;;;;;;18.95;9.20;;;;;;;2.90;100.00;101824.25;20981294;28;20072;-68
2023/01/23 13:02:20;;;;;;;18.85;8.57;;;;;;;2.66;100.00;101806.06;20979222;28;20077;-68
2023/01/23 13:12:21;;;;;;;19.20;9.23;;;;;;;2.65;100.00;101809.47;20979084;28;20043;-68
2023/01/23 13:22:23;;;;;;;19.55;9.52;;;;;;;2.54;100.00;101798.72;20979727;28;20044;-68
2023/01/23 13:32:30;;;;;;;20.17;10.20;;;;;;;2.63;100.00;101801.66;20977307;28;20409;-68
2023/01/23 13:42:32;;;;;;;19.98;9.48;;;;;;;2.48;100.00;101801.06;20979114;28;20098;-68
2023/01/23 14:13:41;;;;;;;20.02;9.30;;;;;;;2.20;100.00;101797.34;20472809;29;20098;-68
2023/01/23 14:23:56;;;;;;;21.95;10.50;;;;;;;2.26;100.00;101779.53;20441337;28;20466;-68
2023/01/23 14:33:58;;;;;;;20.55;9.70;;;;;;;2.20;100.00;101768.06;20669537;28;20461;-68
2023/01/23 14:44:10;;;;;;;19.63;10.30;;;;;;;2.15;100.00;101760.09;20876686;28;20045;-68
2023/01/23 14:54:11;;;;;;;21.83;9.48;;;;;;;2.02;100.00;101763.91;20971116;28;20121;-66
2023/01/23 15:04:13;;;;;;;23.50;11.07;;;;;;;2.05;100.00;101774.34;20971606;28;20455;-66
2023/01/23 15:14:14;;;;;;;22.35;10.20;;;;;;;1.94;100.00;101779.91;20969992;28;20416;-66
2023/01/23 15:24:15;;;;;;;19.73;9.93;;;;;;;2.08;100.00;101783.94;20960084;28;20048;-66
2023/01/23 15:34:17;;;;;;;20.02;10.23;;;;;;;2.13;100.00;101785.00;20967922;28;20056;-66
2023/01/23 15:44:18;;;;;;;16.70;8.55;;;;;;;2.18;100.00;101793.84;20967182;28;20048;-68
2023/01/23 15:54:19;;;;;;;20.15;10.05;;;;;;;2.14;100.00;101799.69;20967659;28;20045;-67
2023/01/23 16:04:20;;;;;;;18.48;8.88;;;;;;;2.12;100.00;101806.50;20966966;28;20361;-67
2023/01/23 16:14:22;;;;;;;17.88;9.57;;;;;;;2.12;100.00;101809.09;20974915;28;20456;-67
2023/01/23 16:24:24;;;;;;;21.33;11.15;;;;;;;2.11;100.00;101815.09;20981835;28;20048;-67
2023/01/23 16:34:25;;;;;;;22.55;10.65;;;;;;;2.19;100.00;101808.50;20982084;28;20053;-68
2023/01/23 16:44:27;;;;;;;16.10;9.15;;;;;;;2.19;100.00;101818.84;20979978;28;20052;-68
2023/01/23 16:54:28;;;;;;;28.42;13.63;;;;;;;2.21;100.00;101817.22;20979182;28;20063;-68
2023/01/23 17:04:29;;;;;;;17.55;9.93;;;;;;;2.11;100.00;101824.50;20976198;28;20143;-67
2023/01/23 17:14:30;;;;;;;38.70;17.58;;;;;;;2.21;100.00;101826.69;20976571;28;20452;-68
2023/01/23 17:24:32;;;;;;;26.33;13.10;;;;;;;2.08;100.00;101835.63;20975436;28;20416;-67
2023/01/23 17:34:33;;;;;;;22.08;11.63;;;;;;;2.10;100.00;101844.31;20976047;28;20095;-68
2023/01/23 17:44:49;;;;;;;21.67;11.35;;;;;;;2.00;100.00;101852.50;20974414;28;20052;-68
2023/01/23 17:54:50;;;;;;;23.63;11.88;;;;;;;1.96;100.00;101866.97;20972965;28;20076;-67
2023/01/23 18:04:52;;;;;;;26.92;13.20;;;;;;;2.14;100.00;101866.88;20972061;28;20045;-67
2023/01/23 18:14:54;;;;;;;24.95;12.32;;;;;;;2.02;100.00;101866.38;20972604;28;20082;-68
2023/01/23 18:24:55;;;;;;;21.45;11.15;;;;;;;1.99;100.00;101871.41;20971554;28;20650;-68
2023/01/23 18:34:57;;;;;;;24.90;11.80;;;;;;;1.79;100.00;101874.00;20970734;28;20045;-68
2023/01/23 18:44:58;;;;;;;28.45;12.80;;;;;;;1.71;100.00;101877.06;20971281;28;20560;-68
2023/01/23 18:54:59;;;;;;;26.88;13.43;;;;;;;1.56;100.00;101891.88;20968947;28;20547;-68
2023/01/23 19:05:01;;;;;;;25.73;12.27;;;;;;;1.50;100.00;101884.75;20968261;28;20068;-67
2023/01/23 19:15:02;;;;;;;25.00;12.05;;;;;;;1.47;100.00;101874.28;20965103;28;20055;-68
2023/01/23 19:25:03;;;;;;;26.38;12.73;;;;;;;1.46;100.00;101873.41;20966622;28;20582;-68
2023/01/23 19:35:05;;;;;;;46.22;19.73;;;;;;;1.63;100.00;101871.59;20967915;28;20049;-67
2023/01/23 19:45:14;;;;;;;24.50;12.35;;;;;;;1.56;100.00;101889.31;20970450;28;20055;-68
2023/01/23 19:55:15;;;;;;;28.15;15.35;;;;;;;1.57;100.00;101871.28;20982076;28;20597;-68
2023/01/23 20:05:17;;;;;;;24.25;12.48;;;;;;;1.70;100.00;101876.19;20978432;28;20084;-68
2023/01/23 20:15:19;;;;;;;25.17;11.20;;;;;;;1.66;100.00;101881.16;20980522;28;20047;-68
2023/01/23 20:25:21;;;;;;;33.65;15.65;;;;;;;1.63;100.00;101870.66;20980339;28;20051;-67
2023/01/23 20:35:22;;;;;;;29.98;13.63;;;;;;;1.63;100.00;101868.09;20978896;28;20055;-67
2023/01/23 20:45:25;;;;;;;25.25;11.15;;;;;;;1.57;100.00;101862.66;20980239;28;20055;-67
2023/01/23 20:55:26;;;;;;;27.40;13.38;;;;;;;1.53;100.00;101869.38;20979519;28;20059;-67
2023/01/23 21:05:27;;;;;;;28.25;13.02;;;;;;;1.53;100.00;101872.88;20976689;28;20078;-69
2023/01/23 21:15:29;;;;;;;23.98;12.18;;;;;;;1.58;100.00;101882.50;20978793;28;20052;-68
2023/01/23 21:25:33;;;;;;;27.65;13.43;;;;;;;1.65;100.00;101885.44;20977706;28;20325;-68
2023/01/23 21:35:34;;;;;;;28.73;12.93;;;;;;;1.69;100.00;101896.78;20977415;28;20090;-69
2023/01/23 21:45:35;;;;;;;25.45;12.05;;;;;;;1.77;100.00;101903.16;20975821;28;20702;-67
2023/01/23 21:55:37;;;;;;;25.85;12.07;;;;;;;1.73;100.00;101925.38;20974695;28;20048;-68
2023/01/23 22:05:38;;;;;;;24.42;12.02;;;;;;;1.71;100.00;101916.66;20973118;28;20463;-71
2023/01/23 22:15:39;;;;;;;27.42;12.90;;;;;;;1.78;100.00;101913.56;20972595;28;20099;-68
2023/01/23 22:25:41;;;;;;;36.67;15.15;;;;;;;1.79;100.00;101925.66;20973781;28;20048;-67
2023/01/23 22:35:42;;;;;;;24.92;12.57;;;;;;;1.92;100.00;101941.72;20972016;28;20083;-67
2023/01/23 22:45:43;;;;;;;25.13;12.48;;;;;;;1.74;100.00;101946.94;20971221;28;20048;-68
2023/01/23 22:55:44;;;;;;;26.20;13.48;;;;;;;1.78;100.00;101941.97;20970968;28;20106;-68
2023/01/23 23:05:45;;;;;;;26.42;13.25;;;;;;;1.67;100.00;101940.59;20968381;28;20068;-68
2023/01/23 23:15:47;;;;;;;25.48;12.77;;;;;;;1.82;100.00;101936.91;20972624;28;20675;-70
2023/01/23 23:25:48;;;;;;;27.35;13.02;;;;;;;1.70;100.00;101925.25;20971886;28;20519;-69
2023/01/23 23:35:49;;;;;;;27.92;12.50;;;;;;;1.79;100.00;101930.81;20971949;28;20048;-70
2023/01/23 23:45:50;;;;;;;25.15;12.15;;;;;;;1.88;100.00;101935.50;20972294;28;20044;-68
2023/01/23 23:55:52;;;;;;;22.73;11.18;;;;;;;1.86;100.00;101921.63;20970264;28;20415;-68
